createdAt,value
2023-05-08T00:01:32.747Z,27.2
2023-05-08T00:03:32.947Z,27.2
2023-05-08T00:05:32.894Z,27.1
2023-05-08T00:07:43.452Z,27.1
2023-05-08T00:09:02.596Z,27.1
2023-05-08T00:09:36.254Z,27.1
2023-05-08T00:11:36.405Z,27
2023-05-08T00:13:37.407Z,27.1
2023-05-08T00:15:36.333Z,27.1
2023-05-08T00:17:34.692Z,27
2023-05-08T00:19:34.724Z,27
2023-05-08T00:21:34.692Z,27
2023-05-08T00:23:34.665Z,27
2023-05-08T00:25:34.738Z,26.9
2023-05-08T00:27:34.694Z,26.9
2023-05-08T00:29:34.722Z,26.9
2023-05-08T00:31:34.753Z,26.8
2023-05-08T00:33:34.686Z,26.8
2023-05-08T00:35:34.704Z,26.7
2023-05-08T00:37:34.678Z,26.7
2023-05-08T00:39:34.742Z,26.6
2023-05-08T00:41:34.669Z,26.5
2023-05-08T00:43:34.851Z,26.6
2023-05-08T00:45:34.675Z,26.6
2023-05-08T00:47:34.700Z,26.5
2023-05-08T00:49:34.675Z,26.5
2023-05-08T00:51:34.634Z,26.4
2023-05-08T00:53:34.666Z,26.5
2023-05-08T00:55:34.771Z,26.4
2023-05-08T00:57:34.751Z,26.4
2023-05-08T00:59:34.630Z,26.3
2023-05-08T01:01:34.676Z,26.2
2023-05-08T01:03:34.779Z,26.2
2023-05-08T01:05:34.669Z,26.2
2023-05-08T01:07:34.610Z,26.1
2023-05-08T01:09:34.661Z,25.9
2023-05-08T01:11:34.674Z,26
2023-05-08T01:13:34.654Z,25.9
2023-05-08T01:15:34.687Z,25.9
2023-05-08T01:17:34.630Z,25.9
2023-05-08T01:19:34.649Z,25.9
2023-05-08T01:21:34.658Z,26
2023-05-08T01:23:34.749Z,26
2023-05-08T01:25:34.652Z,26
2023-05-08T01:27:34.624Z,26
2023-05-08T01:29:34.655Z,25.9
2023-05-08T01:31:34.627Z,25.9
2023-05-08T01:33:34.689Z,26
2023-05-08T01:35:34.599Z,26
2023-05-08T01:37:34.682Z,26
2023-05-08T01:39:34.639Z,26
2023-05-08T01:41:34.592Z,25.7
2023-05-08T01:43:34.632Z,25.9
2023-05-08T01:45:34.602Z,25.9
2023-05-08T01:47:34.628Z,25.7
2023-05-08T01:49:34.629Z,25.6
2023-05-08T01:51:34.696Z,25.7
2023-05-08T01:53:34.746Z,25.6
2023-05-08T01:55:35.943Z,25.6
2023-05-08T01:57:35.864Z,25.6
2023-05-08T01:59:34.586Z,25.5
2023-05-08T02:01:34.601Z,25.5
2023-05-08T02:03:34.613Z,25.6
2023-05-08T02:05:34.551Z,25.5
2023-05-08T02:07:34.572Z,25.6
2023-05-08T02:09:34.561Z,25.5
2023-05-08T02:11:34.747Z,25.3
2023-05-08T02:13:34.560Z,25.2
2023-05-08T02:15:34.595Z,24.9
2023-05-08T02:17:34.749Z,24.7
2023-05-08T02:19:34.580Z,24.5
2023-05-08T02:21:34.561Z,24.3
2023-05-08T02:23:34.560Z,24.2
2023-05-08T02:25:34.652Z,24.1
2023-05-08T02:27:34.585Z,24
2023-05-08T02:29:34.563Z,23.9
2023-05-08T02:31:34.726Z,23.9
2023-05-08T02:33:34.564Z,23.7
2023-05-08T02:35:34.540Z,23.5
2023-05-08T02:37:34.568Z,23
2023-05-08T02:39:34.582Z,22.7
2023-05-08T02:41:34.532Z,22.5
2023-05-08T02:43:35.981Z,22.6
2023-05-08T02:45:34.544Z,22.4
2023-05-08T02:47:34.597Z,22.2
2023-05-08T02:49:34.585Z,22
2023-05-08T02:51:34.722Z,21.9
2023-05-08T02:53:34.599Z,21.8
2023-05-08T02:55:34.528Z,21.7
2023-05-08T02:57:34.552Z,21.7
2023-05-08T02:59:34.549Z,21.6
2023-05-08T03:01:34.543Z,21.6
2023-05-08T03:03:34.577Z,21.6
2023-05-08T03:05:34.644Z,21.6
2023-05-08T03:07:34.528Z,21.7
2023-05-08T03:09:34.524Z,21.6
2023-05-08T03:11:34.504Z,21.5
2023-05-08T03:13:34.492Z,21.6
2023-05-08T03:15:34.585Z,21.6
2023-05-08T03:17:34.526Z,21.6
2023-05-08T03:19:34.529Z,21.6
2023-05-08T03:21:34.472Z,21.9
2023-05-08T03:23:35.813Z,21.9
2023-05-08T03:25:34.519Z,21.6
2023-05-08T03:27:34.530Z,21.4
2023-05-08T03:29:34.471Z,21.3
2023-05-08T03:31:34.571Z,21.3
2023-05-08T03:33:34.721Z,21.4
2023-05-08T03:35:34.475Z,21.3
2023-05-08T03:37:34.514Z,21.3
2023-05-08T03:39:34.497Z,21.1
2023-05-08T03:41:34.462Z,21.2
2023-05-08T03:43:34.498Z,21.3
2023-05-08T03:45:34.466Z,21.2
2023-05-08T03:47:34.550Z,21.4
2023-05-08T03:49:34.472Z,21.4
2023-05-08T03:51:34.550Z,21.4
2023-05-08T03:53:34.486Z,21.3
2023-05-08T03:55:34.484Z,21.2
2023-05-08T03:57:34.525Z,20.7
2023-05-08T03:59:34.481Z,20.8
2023-05-08T04:01:34.556Z,20.7
2023-05-08T04:03:34.534Z,20.6
2023-05-08T04:05:34.443Z,20.6
2023-05-08T04:07:34.472Z,20.6
2023-05-08T04:09:34.480Z,20.6
2023-05-08T04:11:34.490Z,20.6
2023-05-08T04:13:34.478Z,20.7
2023-05-08T04:15:34.451Z,20.7
2023-05-08T04:17:34.453Z,20.7
2023-05-08T04:19:34.477Z,20.6
2023-05-08T04:21:34.423Z,20.6
2023-05-08T04:23:34.415Z,20.6
2023-05-08T04:25:34.453Z,20.6
2023-05-08T04:27:34.434Z,20.6
2023-05-08T04:29:34.428Z,20.5
2023-05-08T04:31:35.730Z,20.4
2023-05-08T04:33:34.521Z,20.5
2023-05-08T04:35:34.507Z,20.4
2023-05-08T04:37:34.437Z,20.4
2023-05-08T04:39:34.395Z,20.4
2023-05-08T04:41:34.420Z,20.5
2023-05-08T04:43:34.432Z,20.5
2023-05-08T04:45:34.472Z,20.4
2023-05-08T04:47:34.448Z,20.4
2023-05-08T04:49:34.404Z,20.4
2023-05-08T04:51:34.458Z,20.4
2023-05-08T04:53:34.380Z,20.4
2023-05-08T04:55:34.473Z,20.3
2023-05-08T04:57:34.402Z,20.3
2023-05-08T04:59:34.390Z,20.3
2023-05-08T05:01:34.462Z,20.3
2023-05-08T05:03:34.583Z,20.3
2023-05-08T05:05:34.617Z,20.2
2023-05-08T05:07:34.406Z,20.2
2023-05-08T05:09:34.561Z,20.2
2023-05-08T05:11:34.426Z,20.2
2023-05-08T05:13:34.360Z,20.3
2023-05-08T05:15:34.390Z,20.2
2023-05-08T05:17:34.378Z,20.2
2023-05-08T05:19:34.385Z,20.3
2023-05-08T05:21:34.356Z,20.3
2023-05-08T05:23:34.386Z,20.3
2023-05-08T05:25:34.454Z,20.3
2023-05-08T05:27:34.368Z,20.4
2023-05-08T05:29:34.361Z,20.4
2023-05-08T05:31:35.667Z,20.4
2023-05-08T05:33:34.354Z,20.3
2023-05-08T05:35:34.430Z,20.3
2023-05-08T05:37:34.387Z,20.2
2023-05-08T05:39:34.400Z,20.1
2023-05-08T05:41:34.389Z,20.2
2023-05-08T05:43:34.332Z,20.2
2023-05-08T05:45:34.383Z,20.1
2023-05-08T05:47:34.327Z,20.2
2023-05-08T05:49:34.360Z,20.2
2023-05-08T05:51:34.321Z,20.3
2023-05-08T05:53:34.312Z,20.3
2023-05-08T05:55:34.331Z,20.3
2023-05-08T05:57:34.348Z,20.3
2023-05-08T05:59:34.310Z,20.3
2023-05-08T06:01:34.361Z,20.3
2023-05-08T06:03:34.418Z,20.4
2023-05-08T06:05:34.345Z,20.3
2023-05-08T06:07:34.328Z,20.3
2023-05-08T06:09:34.336Z,20.3
2023-05-08T06:11:34.341Z,20.3
2023-05-08T06:13:34.297Z,20.3
2023-05-08T06:15:34.284Z,20.2
2023-05-08T06:17:34.295Z,20.2
2023-05-08T06:19:34.338Z,20.2
2023-05-08T06:21:34.265Z,20.2
2023-05-08T06:23:34.277Z,20.3
2023-05-08T06:25:34.284Z,20.3
2023-05-08T06:27:34.291Z,20.3
2023-05-08T06:29:34.280Z,20.2
2023-05-08T06:31:34.393Z,20.2
2023-05-08T06:33:34.313Z,20.3
2023-05-08T06:35:34.274Z,20.3
2023-05-08T06:37:34.257Z,20.2
2023-05-08T06:39:34.307Z,20.1
2023-05-08T06:41:34.413Z,20.1
2023-05-08T06:43:34.277Z,20.2
2023-05-08T06:45:34.329Z,20.2
2023-05-08T06:47:34.300Z,20.1
2023-05-08T06:49:34.292Z,20.2
2023-05-08T06:51:34.251Z,20.1
2023-05-08T06:53:34.259Z,20.2
2023-05-08T06:55:34.252Z,20.1
2023-05-08T06:57:34.270Z,20.1
2023-05-08T06:59:34.277Z,20.2
2023-05-08T07:01:34.324Z,20.1
2023-05-08T07:03:34.229Z,20.2
2023-05-08T07:05:34.263Z,20.1
2023-05-08T07:07:34.325Z,20.1
2023-05-08T07:09:34.244Z,20.2
2023-05-08T07:11:34.287Z,20.2
2023-05-08T07:13:34.393Z,20.3
2023-05-08T07:15:34.269Z,20.2
2023-05-08T07:17:34.342Z,20.2
2023-05-08T07:19:34.229Z,20.2
2023-05-08T07:21:34.205Z,20.1
2023-05-08T07:23:34.261Z,20.2
2023-05-08T07:25:34.226Z,20.2
2023-05-08T07:27:34.286Z,20.1
2023-05-08T07:29:34.221Z,20.1
2023-05-08T07:31:34.289Z,20.1
2023-05-08T07:33:34.235Z,20.1
2023-05-08T07:35:34.222Z,20.1
2023-05-08T07:37:34.208Z,20.1
2023-05-08T07:39:34.228Z,20
2023-05-08T07:41:34.217Z,19.9
2023-05-08T07:43:34.183Z,20
2023-05-08T07:45:35.400Z,20.1
2023-05-08T07:47:34.379Z,20.1
2023-05-08T07:49:34.275Z,20
2023-05-08T07:51:34.183Z,20
2023-05-08T07:53:34.192Z,20
2023-05-08T07:55:34.201Z,20
2023-05-08T07:57:34.183Z,20
2023-05-08T07:59:34.231Z,20
2023-05-08T08:01:34.217Z,19.9
2023-05-08T08:03:34.276Z,20
2023-05-08T08:05:34.201Z,19.9
2023-05-08T08:07:34.191Z,19.9
2023-05-08T08:09:34.207Z,19.9
2023-05-08T08:11:34.212Z,20
2023-05-08T08:13:34.273Z,20
2023-05-08T08:15:34.184Z,20.1
2023-05-08T08:17:34.292Z,20.1
2023-05-08T08:19:34.338Z,20.1
2023-05-08T08:21:35.374Z,20.1
2023-05-08T08:23:34.158Z,20.1
2023-05-08T08:25:34.132Z,20.2
2023-05-08T08:27:34.148Z,20.1
2023-05-08T08:29:34.233Z,20.1
2023-05-08T08:31:34.378Z,20.1
2023-05-08T08:33:34.128Z,20.1
2023-05-08T08:35:34.185Z,20.1
2023-05-08T08:37:34.123Z,20.2
2023-05-08T08:39:34.138Z,20.2
2023-05-08T08:41:34.150Z,20.2
2023-05-08T08:43:34.137Z,20.2
2023-05-08T08:45:34.152Z,20.2
2023-05-08T08:47:34.202Z,20.3
2023-05-08T08:49:34.147Z,20.2
2023-05-08T08:51:35.691Z,20.2
2023-05-08T08:53:34.192Z,20.2
2023-05-08T08:55:34.221Z,20.3
2023-05-08T08:57:34.160Z,20.3
2023-05-08T08:59:34.094Z,20.3
2023-05-08T09:01:34.199Z,20.3
2023-05-08T09:03:34.179Z,20.3
2023-05-08T09:05:34.112Z,20.3
2023-05-08T09:07:34.092Z,20.2
2023-05-08T09:09:34.138Z,20.2
2023-05-08T09:11:34.097Z,20.2
2023-05-08T09:13:34.096Z,20.2
2023-05-08T09:15:34.109Z,20.3
2023-05-08T09:17:34.198Z,20.3
2023-05-08T09:19:34.102Z,20.3
2023-05-08T09:21:34.096Z,20.2
2023-05-08T09:23:34.205Z,20.2
2023-05-08T09:25:34.073Z,20.3
2023-05-08T09:27:34.105Z,20.2
2023-05-08T09:29:34.070Z,20.2
2023-05-08T09:31:34.080Z,20.2
2023-05-08T09:33:34.102Z,20.2
2023-05-08T09:35:34.078Z,20.2
2023-05-08T09:37:34.080Z,20.2
2023-05-08T09:39:34.066Z,20.1
2023-05-08T09:41:34.057Z,20.1
2023-05-08T09:43:34.074Z,20.1
2023-05-08T09:45:34.052Z,20.2
2023-05-08T09:47:34.136Z,20.2
2023-05-08T09:49:34.048Z,20.2
2023-05-08T09:51:34.098Z,20.1
2023-05-08T09:53:34.253Z,20.2
2023-05-08T09:55:34.085Z,20.2
2023-05-08T09:57:34.233Z,20.2
2023-05-08T09:59:34.516Z,20.2
2023-05-08T10:01:34.310Z,20.2
2023-05-08T10:03:34.121Z,20.2
2023-05-08T10:05:34.110Z,20.2
2023-05-08T10:07:34.044Z,20.3
2023-05-08T10:09:42.982Z,20.3
2023-05-08T10:11:34.032Z,20.3
2023-05-08T10:13:34.036Z,20.3
2023-05-08T10:15:34.043Z,20.4
2023-05-08T10:17:34.217Z,20.3
2023-05-08T10:19:34.046Z,20.4
2023-05-08T10:21:34.015Z,20.4
2023-05-08T10:23:35.493Z,20.4
2023-05-08T10:25:35.507Z,20.5
2023-05-08T10:27:36.536Z,20.5
2023-05-08T10:29:34.121Z,20.5
2023-05-08T10:31:34.063Z,20.5
2023-05-08T10:33:34.113Z,20.6
2023-05-08T10:35:34.251Z,20.6
2023-05-08T10:37:34.011Z,20.6
2023-05-08T10:39:34.106Z,20.7
2023-05-08T10:41:35.171Z,20.7
2023-05-08T10:43:34.063Z,20.8
2023-05-08T10:45:34.108Z,20.9
2023-05-08T10:47:34.392Z,20.9
2023-05-08T10:49:34.081Z,20.9
2023-05-08T10:51:34.104Z,20.9
2023-05-08T10:53:34.092Z,20.9
2023-05-08T10:55:35.284Z,20.9
2023-05-08T10:57:34.072Z,20.9
2023-05-08T10:59:34.012Z,20.9
2023-05-08T11:01:34.102Z,20.9
2023-05-08T11:03:34.074Z,20.9
2023-05-08T11:05:33.997Z,21
2023-05-08T11:07:34.104Z,21
2023-05-08T11:09:34.003Z,21
2023-05-08T11:11:33.995Z,21
2023-05-08T11:13:34.038Z,21
2023-05-08T11:15:34.008Z,21
2023-05-08T11:17:33.961Z,21
2023-05-08T11:19:34.061Z,21
2023-05-08T11:21:33.948Z,21
2023-05-08T11:23:34.104Z,21
2023-05-08T11:25:34.137Z,21.1
2023-05-08T11:27:34.061Z,21.2
2023-05-08T11:29:33.983Z,21.2
2023-05-08T11:31:35.336Z,21.2
2023-05-08T11:33:36.864Z,21.2
2023-05-08T11:35:34.089Z,21.4
2023-05-08T11:37:33.947Z,21.5
2023-05-08T11:39:33.936Z,21.5
2023-05-08T11:41:33.959Z,21.5
2023-05-08T11:43:34.038Z,21.5
2023-05-08T11:45:34.082Z,21.6
2023-05-08T11:47:34.002Z,21.6
2023-05-08T11:48:57.488Z,27.5
2023-05-08T11:48:57.530Z,21.6
2023-05-08T11:51:34.023Z,21.7
2023-05-08T11:52:06.002Z,21.7
2023-05-08T11:53:35.175Z,21.8
2023-05-08T11:55:36.449Z,21.8
2023-05-08T11:57:34.007Z,21.9
2023-05-08T11:59:34.192Z,22.1
2023-05-08T12:01:35.520Z,22.2
2023-05-08T12:03:34.049Z,22.2
2023-05-08T12:05:33.916Z,22.4
2023-05-08T12:07:34.124Z,22.6
2023-05-08T12:09:34.029Z,22.7
2023-05-08T12:11:33.965Z,22.9
2023-05-08T12:13:34.036Z,23.2
2023-05-08T12:15:33.968Z,23.4
2023-05-08T12:17:33.950Z,23.5
2023-05-08T12:19:34.008Z,23.3
2023-05-08T12:21:33.942Z,23.7
2023-05-08T12:23:33.898Z,23.8
2023-05-08T12:25:34.659Z,24.1
2023-05-08T12:27:33.930Z,24.3
2023-05-08T12:29:35.152Z,24.4
2023-05-08T12:31:34.047Z,24.5
2023-05-08T12:33:33.999Z,24.5
2023-05-08T12:35:35.371Z,24.7
2023-05-08T12:37:33.883Z,24.7
2023-05-08T12:39:33.989Z,24.7
2023-05-08T12:41:33.903Z,24.8
2023-05-08T12:43:33.907Z,24.9
2023-05-08T12:45:33.959Z,25.1
2023-05-08T12:47:33.964Z,25
2023-05-08T12:49:33.867Z,25
2023-05-08T12:51:33.902Z,24.9
2023-05-08T12:53:33.882Z,24.9
2023-05-08T12:55:33.887Z,25
2023-05-08T12:57:33.879Z,25
2023-05-08T12:59:33.861Z,25
2023-05-08T13:01:33.883Z,25.2
2023-05-08T13:03:34.031Z,25.3
2023-05-08T13:05:33.952Z,25.5
2023-05-08T13:07:33.935Z,25.9
2023-05-08T13:09:33.898Z,26
2023-05-08T13:11:33.906Z,26.1
2023-05-08T13:13:35.006Z,26.2
2023-05-08T13:15:33.836Z,26.3
2023-05-08T13:17:33.866Z,26.1
2023-05-08T13:19:33.826Z,26.2
2023-05-08T13:21:33.867Z,26.2
2023-05-08T13:23:34.146Z,26.4
2023-05-08T13:25:33.891Z,26.6
2023-05-08T13:27:33.862Z,26.4
2023-05-08T13:29:33.869Z,26.5
2023-05-08T13:31:33.904Z,26.6
2023-05-08T13:33:33.815Z,26.5
2023-05-08T13:35:34.010Z,26.6
2023-05-08T13:37:33.808Z,26.7
2023-05-08T13:39:33.978Z,27.1
2023-05-08T13:41:33.847Z,26.9
2023-05-08T13:43:34.060Z,27.1
2023-05-08T13:45:33.831Z,27.2
2023-05-08T13:47:33.837Z,27.2
2023-05-08T13:49:33.790Z,27.1
2023-05-08T13:51:33.859Z,27.1
2023-05-08T13:53:34.918Z,27.1
2023-05-08T13:55:35.005Z,27.3
2023-05-08T13:57:34.105Z,27.3
2023-05-08T13:59:33.795Z,27.4
2023-05-08T14:01:33.890Z,27.5
2023-05-08T14:03:33.867Z,27.6
2023-05-08T14:05:33.784Z,27.8
2023-05-08T14:07:33.860Z,27.7
2023-05-08T14:09:33.799Z,27.3
2023-05-08T14:11:33.917Z,27.5
2023-05-08T14:13:33.817Z,27.6
2023-05-08T14:15:37.215Z,27.6
2023-05-08T14:17:33.810Z,27.8
2023-05-08T14:19:34.466Z,27.8
2023-05-08T14:21:33.776Z,27.8
2023-05-08T14:23:33.790Z,27.8
2023-05-08T14:25:33.801Z,27.9
2023-05-08T14:27:34.962Z,27.8
2023-05-08T14:29:33.979Z,27.9
2023-05-08T14:31:33.892Z,27.8
2023-05-08T14:33:33.786Z,27.8
2023-05-08T14:35:33.793Z,28
2023-05-08T14:37:33.766Z,28.2
2023-05-08T14:39:33.923Z,28.1
2023-05-08T14:41:33.835Z,27.8
2023-05-08T14:43:33.977Z,28
2023-05-08T14:45:33.850Z,28.4
2023-05-08T14:47:33.873Z,28.5
2023-05-08T14:49:38.358Z,28.5
2023-05-08T14:51:33.769Z,28.4
2023-05-08T14:53:33.906Z,28.4
2023-05-08T14:55:33.820Z,28.6
2023-05-08T14:57:33.760Z,28.7
2023-05-08T14:59:33.968Z,28.9
2023-05-08T15:01:33.832Z,29.2
2023-05-08T15:03:35.238Z,29.2
2023-05-08T15:05:33.718Z,29.4
2023-05-08T15:07:33.814Z,29.3
2023-05-08T15:09:33.798Z,29.3
2023-05-08T15:11:36.272Z,29.6
2023-05-08T15:13:33.844Z,29.7
2023-05-08T15:15:33.882Z,29.9
2023-05-08T15:17:33.725Z,30
2023-05-08T15:19:33.874Z,29.9
2023-05-08T15:21:33.807Z,29.8
2023-05-08T15:23:33.779Z,30.1
2023-05-08T15:25:35.220Z,30.4
2023-05-08T15:27:33.753Z,30.8
2023-05-08T15:29:33.765Z,30.8
2023-05-08T15:31:33.866Z,30.7
2023-05-08T15:33:38.254Z,30.9
2023-05-08T15:35:33.741Z,31.2
2023-05-08T15:37:35.344Z,31.4
2023-05-08T15:39:33.665Z,31.3
2023-05-08T15:41:33.812Z,31.2
2023-05-08T15:43:33.785Z,31.3
2023-05-08T15:45:33.841Z,31.3
2023-05-08T15:47:34.091Z,31.4
2023-05-08T15:49:33.761Z,31.8
2023-05-08T15:51:33.748Z,31.5
2023-05-08T15:53:33.849Z,31.6
2023-05-08T15:55:33.676Z,32
2023-05-08T15:57:35.027Z,32
2023-05-08T15:59:33.708Z,32.2
2023-05-08T16:01:33.974Z,32.1
2023-05-08T16:03:33.981Z,31.6
2023-05-08T16:05:33.728Z,31.9
2023-05-08T16:07:33.710Z,32
2023-05-08T16:09:34.896Z,31.6
2023-05-08T16:11:33.858Z,31.7
2023-05-08T16:13:33.687Z,31.9
2023-05-08T16:15:33.656Z,32
2023-05-08T16:17:33.876Z,31.8
2023-05-08T16:19:34.820Z,31.7
2023-05-08T16:21:33.704Z,31.6
2023-05-08T16:23:33.767Z,31.7
2023-05-08T16:25:33.692Z,32
2023-05-08T16:27:33.702Z,31.9
2023-05-08T16:29:33.751Z,31.8
2023-05-08T16:31:33.851Z,31.7
2023-05-08T16:33:33.689Z,31.6
2023-05-08T16:35:33.655Z,31.9
2023-05-08T16:37:33.971Z,32.2
2023-05-08T16:39:33.675Z,32.1
2023-05-08T16:41:33.832Z,32.5
2023-05-08T16:43:33.661Z,32.4
2023-05-08T16:45:33.706Z,32.6
2023-05-08T16:47:33.850Z,32.4
2023-05-08T16:49:33.770Z,32.6
2023-05-08T16:51:33.967Z,32.5
2023-05-08T16:53:33.688Z,32.2
2023-05-08T16:55:34.986Z,32.6
2023-05-08T16:57:34.648Z,32.8
2023-05-08T16:59:34.939Z,32.4
2023-05-08T17:01:33.701Z,32.4
2023-05-08T17:03:33.841Z,32.4
2023-05-08T17:05:33.616Z,32.5
2023-05-08T17:07:33.608Z,32.5
2023-05-08T17:09:35.163Z,32.2
2023-05-08T17:11:35.319Z,32.1
2023-05-08T17:13:33.655Z,32.1
2023-05-08T17:15:33.592Z,31.9
2023-05-08T17:17:33.751Z,31.9
2023-05-08T17:19:33.719Z,32.1
2023-05-08T17:21:34.705Z,32.1
2023-05-08T17:23:33.638Z,32
2023-05-08T17:25:33.607Z,32
2023-05-08T17:27:33.605Z,32.2
2023-05-08T17:29:37.961Z,31.8
2023-05-08T17:31:33.697Z,31.7
2023-05-08T17:33:33.602Z,31.4
2023-05-08T17:35:33.649Z,31.3
2023-05-08T17:37:34.825Z,31.5
2023-05-08T17:39:33.616Z,31.7
2023-05-08T17:41:33.629Z,31.6
2023-05-08T17:43:33.679Z,31.8
2023-05-08T17:45:36.140Z,31.7
2023-05-08T17:47:33.747Z,31.7
2023-05-08T17:49:33.558Z,31.6
2023-05-08T17:51:33.687Z,31.4
2023-05-08T17:53:33.598Z,31.6
2023-05-08T17:55:33.626Z,31.7
2023-05-08T18:15:34.828Z,32.9
2023-05-08T18:18:02.115Z,33.2
2023-05-08T18:20:03.090Z,33.1
2023-05-08T18:22:03.012Z,33.1
2023-05-08T18:24:02.202Z,33.2
2023-05-08T18:26:02.030Z,33.3
2023-05-08T18:28:02.072Z,33.3
2023-05-08T18:30:02.223Z,32.8
2023-05-08T18:32:01.959Z,32.6
2023-05-08T18:34:04.431Z,32.5
2023-05-08T18:36:02.166Z,32.8
2023-05-08T18:38:01.884Z,33
2023-05-08T18:40:01.905Z,33
2023-05-08T18:42:01.992Z,33
2023-05-08T18:44:01.883Z,33.4
2023-05-08T18:46:02.065Z,33.6
2023-05-08T18:48:03.091Z,33.4
2023-05-08T18:50:02.034Z,33.4
2023-05-08T18:52:01.985Z,33.3
2023-05-08T18:54:12.228Z,33.4
2023-05-08T18:56:02.020Z,33.7
2023-05-08T18:58:01.995Z,33.9
2023-05-08T19:00:01.899Z,33.7
2023-05-08T19:02:02.160Z,34.3
2023-05-08T19:04:01.932Z,34.5
2023-05-08T19:06:01.888Z,34.7
2023-05-08T19:08:01.917Z,34.8
2023-05-08T19:10:01.813Z,35
2023-05-08T19:12:01.838Z,34.6
2023-05-08T19:14:01.915Z,34.3
2023-05-08T19:16:02.027Z,34.3
2023-05-08T19:18:01.880Z,34
2023-05-08T19:20:01.852Z,34
2023-05-08T19:22:02.079Z,34
2023-05-08T19:24:01.850Z,33.8
2023-05-08T19:26:03.195Z,33.9
2023-05-08T19:28:03.149Z,33.8
2023-05-08T19:30:01.889Z,33.8
2023-05-08T19:32:01.855Z,33.6
2023-05-08T19:34:04.620Z,33.3
2023-05-08T19:36:01.960Z,33.2
2023-05-08T19:38:02.016Z,32.9
2023-05-08T19:40:03.030Z,32.8
2023-05-08T19:42:02.048Z,32.6
2023-05-08T19:44:01.999Z,32.9
2023-05-08T19:46:01.876Z,33.1
2023-05-08T19:48:02.281Z,33.7
2023-05-08T19:50:01.987Z,33.9
2023-05-08T19:52:01.817Z,33.6
2023-05-08T19:54:01.815Z,33.7
2023-05-08T19:56:03.729Z,34.1
2023-05-08T19:58:01.945Z,34.1
2023-05-08T20:00:03.108Z,34.2
2023-05-08T20:02:01.868Z,33.9
2023-05-08T20:04:01.968Z,34.1
2023-05-08T20:06:01.908Z,34.1
2023-05-08T20:08:01.839Z,34.1
2023-05-08T20:10:01.830Z,34
2023-05-08T20:12:01.891Z,33.9
2023-05-08T20:14:01.791Z,33.9
2023-05-08T20:16:01.910Z,33.6
2023-05-08T20:18:01.783Z,33.4
2023-05-08T20:20:01.875Z,33.4
2023-05-08T20:22:01.869Z,33.1
2023-05-08T20:24:06.283Z,33.2
2023-05-08T20:26:01.767Z,33.3
2023-05-08T20:28:01.774Z,33.4
2023-05-08T20:30:03.273Z,33.3
2023-05-08T20:32:27.257Z,33.3
2023-05-08T20:34:01.774Z,33.1
2023-05-08T20:36:01.780Z,33.1
2023-05-08T20:38:01.754Z,33.3
2023-05-08T20:40:01.758Z,33.1
2023-05-08T20:42:01.809Z,32.9
2023-05-08T20:44:01.736Z,32.8
2023-05-08T20:46:01.842Z,32.7
2023-05-08T20:48:01.874Z,33.1
2023-05-08T20:50:01.948Z,33.1
2023-05-08T20:52:01.805Z,32.7
2023-05-08T20:54:02.023Z,32.5
2023-05-08T20:56:02.807Z,32.3
2023-05-08T20:58:02.006Z,32.5
2023-05-08T21:00:01.965Z,32.2
2023-05-08T21:02:01.781Z,32.2
2023-05-08T21:04:01.871Z,32.2
2023-05-08T21:06:01.766Z,32.3
2023-05-08T21:08:03.113Z,32.3
2023-05-08T21:10:01.843Z,32
2023-05-08T21:12:01.852Z,32.1
2023-05-08T21:14:12.198Z,32
2023-05-08T21:16:01.777Z,31.9
2023-05-08T21:18:02.076Z,32.1
2023-05-08T21:20:01.765Z,31.9
2023-05-08T21:22:02.905Z,31.8
2023-05-08T21:24:01.728Z,31.7
2023-05-08T21:26:04.438Z,31.8
2023-05-08T21:28:01.733Z,32
2023-05-08T21:30:01.834Z,32
2023-05-08T21:32:01.771Z,32.1
2023-05-08T21:34:01.944Z,32.3
2023-05-08T21:36:01.787Z,32.3
2023-05-08T21:38:01.769Z,32.6
2023-05-08T21:40:04.607Z,32.7
2023-05-08T21:42:01.772Z,32.6
2023-05-08T21:44:01.863Z,32.8
2023-05-08T21:46:01.765Z,32.6
2023-05-08T21:48:01.766Z,32.6
2023-05-08T21:50:01.775Z,32.5
2023-05-08T21:52:01.760Z,32.5
2023-05-08T21:54:01.779Z,32.5
2023-05-08T21:56:01.732Z,32.5
2023-05-08T21:58:01.839Z,32.7
2023-05-08T22:00:01.791Z,32.7
2023-05-08T22:02:01.743Z,33.4
2023-05-08T22:04:02.867Z,33.2
2023-05-08T22:06:01.665Z,32.9
2023-05-08T22:08:02.896Z,32.9
2023-05-08T22:10:01.773Z,32.8
2023-05-08T22:12:01.682Z,32.7
2023-05-08T22:14:01.735Z,32.4
2023-05-08T22:16:01.720Z,32.4
2023-05-08T22:18:01.731Z,32.4
2023-05-08T22:20:01.775Z,32.1
2023-05-08T22:22:01.724Z,32.2
2023-05-08T22:24:01.978Z,32
2023-05-08T22:26:03.174Z,31.8
2023-05-08T22:28:01.743Z,32
2023-05-08T22:30:01.781Z,31.9
2023-05-08T22:32:01.737Z,31.8
2023-05-08T22:34:01.660Z,31.8
2023-05-08T22:36:01.764Z,31.8
2023-05-08T22:38:01.664Z,31.8
2023-05-08T22:40:01.712Z,31.6
2023-05-08T22:42:01.697Z,31.3
2023-05-08T22:44:01.686Z,31.3
2023-05-08T22:46:01.632Z,31.2
2023-05-08T22:48:01.679Z,31.3
2023-05-08T22:50:01.714Z,31.4
2023-05-08T22:52:01.709Z,31.8
2023-05-08T22:54:01.811Z,31.6
2023-05-08T22:56:04.380Z,31.5
2023-05-08T22:58:03.195Z,31.6
2023-05-08T23:00:01.672Z,31.5
2023-05-08T23:02:01.576Z,31.4
2023-05-08T23:04:01.689Z,31.3
2023-05-08T23:06:01.641Z,31.3
2023-05-08T23:08:01.623Z,31.2
2023-05-08T23:10:01.623Z,31.2
2023-05-08T23:12:01.593Z,31.1
2023-05-08T23:14:01.652Z,31
2023-05-08T23:16:01.772Z,30.7
2023-05-08T23:18:01.672Z,30.8
2023-05-08T23:20:01.621Z,30.7
2023-05-08T23:22:01.743Z,30.5
2023-05-08T23:24:01.609Z,30.2
2023-05-08T23:26:01.819Z,30.1
2023-05-08T23:28:01.648Z,30.2
2023-05-08T23:30:01.763Z,30
2023-05-08T23:32:01.710Z,29.8
2023-05-08T23:34:01.639Z,29.7
2023-05-08T23:36:01.648Z,29.6
2023-05-08T23:38:01.563Z,29.6
2023-05-08T23:40:04.122Z,29.5
2023-05-08T23:42:01.561Z,29.4
2023-05-08T23:44:01.537Z,29.3
2023-05-08T23:46:01.646Z,29.2
2023-05-08T23:48:01.771Z,29.2
2023-05-08T23:50:01.694Z,29.1
2023-05-08T23:52:03.081Z,29
2023-05-08T23:54:01.620Z,28.9
2023-05-08T23:56:01.577Z,28.7
2023-05-08T23:58:01.624Z,28.7
